sensor_id;sensor_type;location;lat;lon;timestamp;P1;durP1;ratioP1;P2;durP2;ratioP2
78622;SDS011;67943;54.412;9.502;2023-09-08T00:01:11;13.25;;;8.82;;
78622;SDS011;67943;54.412;9.502;2023-09-08T00:06:14;11.65;;;8.82;;
78622;SDS011;67943;54.412;9.502;2023-09-08T00:11:15;8.75;;;7.82;;
78622;SDS011;67943;54.412;9.502;2023-09-08T00:16:17;11.52;;;8.65;;
78622;SDS011;67943;54.412;9.502;2023-09-08T00:21:19;10.45;;;8.15;;
78622;SDS011;67943;54.412;9.502;2023-09-08T00:26:21;10.13;;;8.30;;
78622;SDS011;67943;54.412;9.502;2023-09-08T00:31:22;11.23;;;7.80;;
78622;SDS011;67943;54.412;9.502;2023-09-08T00:36:25;10.15;;;7.85;;
78622;SDS011;67943;54.412;9.502;2023-09-08T00:41:27;9.18;;;7.18;;
78622;SDS011;67943;54.412;9.502;2023-09-08T00:46:28;10.38;;;8.20;;
78622;SDS011;67943;54.412;9.502;2023-09-08T00:51:32;10.25;;;7.78;;
78622;SDS011;67943;54.412;9.502;2023-09-08T00:56:35;9.45;;;7.82;;
78622;SDS011;67943;54.412;9.502;2023-09-08T01:01:38;11.57;;;7.90;;
78622;SDS011;67943;54.412;9.502;2023-09-08T01:06:41;9.38;;;7.30;;
78622;SDS011;67943;54.412;9.502;2023-09-08T01:11:43;9.32;;;7.97;;
78622;SDS011;67943;54.412;9.502;2023-09-08T01:16:45;11.98;;;7.97;;
78622;SDS011;67943;54.412;9.502;2023-09-08T01:21:57;10.35;;;8.18;;
78622;SDS011;67943;54.412;9.502;2023-09-08T01:27:14;10.45;;;7.68;;
78622;SDS011;67943;54.412;9.502;2023-09-08T01:32:17;10.45;;;7.95;;
78622;SDS011;67943;54.412;9.502;2023-09-08T01:37:22;10.15;;;7.70;;
78622;SDS011;67943;54.412;9.502;2023-09-08T01:42:25;9.40;;;7.88;;
78622;SDS011;67943;54.412;9.502;2023-09-08T01:47:28;9.43;;;7.45;;
78622;SDS011;67943;54.412;9.502;2023-09-08T01:52:30;8.93;;;7.47;;
78622;SDS011;67943;54.412;9.502;2023-09-08T01:57:33;10.05;;;7.63;;
78622;SDS011;67943;54.412;9.502;2023-09-08T02:02:35;9.85;;;7.70;;
78622;SDS011;67943;54.412;9.502;2023-09-08T02:07:36;9.02;;;7.55;;
78622;SDS011;67943;54.412;9.502;2023-09-08T02:12:39;12.98;;;8.77;;
78622;SDS011;67943;54.412;9.502;2023-09-08T02:17:40;9.45;;;8.45;;
78622;SDS011;67943;54.412;9.502;2023-09-08T02:22:42;13.75;;;7.82;;
78622;SDS011;67943;54.412;9.502;2023-09-08T02:27:45;10.57;;;7.93;;
78622;SDS011;67943;54.412;9.502;2023-09-08T02:32:46;9.73;;;7.93;;
78622;SDS011;67943;54.412;9.502;2023-09-08T02:37:48;9.50;;;8.32;;
78622;SDS011;67943;54.412;9.502;2023-09-08T02:42:51;9.55;;;7.38;;
78622;SDS011;67943;54.412;9.502;2023-09-08T02:47:52;10.68;;;8.20;;
78622;SDS011;67943;54.412;9.502;2023-09-08T02:52:54;11.68;;;9.50;;
78622;SDS011;67943;54.412;9.502;2023-09-08T02:57:57;12.95;;;8.77;;
78622;SDS011;67943;54.412;9.502;2023-09-08T03:02:58;11.38;;;8.80;;
78622;SDS011;67943;54.412;9.502;2023-09-08T03:08:00;10.93;;;8.55;;
78622;SDS011;67943;54.412;9.502;2023-09-08T03:13:03;9.77;;;8.05;;
78622;SDS011;67943;54.412;9.502;2023-09-08T03:18:04;10.23;;;7.90;;
78622;SDS011;67943;54.412;9.502;2023-09-08T03:23:06;9.50;;;8.45;;
78622;SDS011;67943;54.412;9.502;2023-09-08T03:28:09;8.75;;;7.30;;
78622;SDS011;67943;54.412;9.502;2023-09-08T03:33:10;10.57;;;8.68;;
78622;SDS011;67943;54.412;9.502;2023-09-08T03:38:12;10.68;;;8.10;;
78622;SDS011;67943;54.412;9.502;2023-09-08T03:43:15;12.90;;;8.52;;
78622;SDS011;67943;54.412;9.502;2023-09-08T03:48:16;12.68;;;8.40;;
78622;SDS011;67943;54.412;9.502;2023-09-08T03:53:18;8.95;;;7.90;;
78622;SDS011;67943;54.412;9.502;2023-09-08T03:58:21;10.43;;;8.20;;
78622;SDS011;67943;54.412;9.502;2023-09-08T04:03:22;10.35;;;8.13;;
78622;SDS011;67943;54.412;9.502;2023-09-08T04:08:24;12.68;;;8.68;;
78622;SDS011;67943;54.412;9.502;2023-09-08T04:13:27;10.40;;;8.07;;
78622;SDS011;67943;54.412;9.502;2023-09-08T04:18:28;11.45;;;9.02;;
78622;SDS011;67943;54.412;9.502;2023-09-08T04:23:30;11.57;;;8.57;;
78622;SDS011;67943;54.412;9.502;2023-09-08T04:28:32;12.25;;;8.00;;
78622;SDS011;67943;54.412;9.502;2023-09-08T04:33:34;10.48;;;8.40;;
78622;SDS011;67943;54.412;9.502;2023-09-08T04:38:35;12.45;;;8.80;;
78622;SDS011;67943;54.412;9.502;2023-09-08T04:43:38;11.60;;;8.23;;
78622;SDS011;67943;54.412;9.502;2023-09-08T04:48:40;9.77;;;7.82;;
78622;SDS011;67943;54.412;9.502;2023-09-08T04:53:42;10.98;;;7.75;;
78622;SDS011;67943;54.412;9.502;2023-09-08T04:58:45;10.93;;;8.85;;
78622;SDS011;67943;54.412;9.502;2023-09-08T05:03:46;8.45;;;7.50;;
78622;SDS011;67943;54.412;9.502;2023-09-08T05:08:48;11.68;;;8.25;;
78622;SDS011;67943;54.412;9.502;2023-09-08T05:13:51;11.10;;;8.13;;
78622;SDS011;67943;54.412;9.502;2023-09-08T05:18:52;12.75;;;9.18;;
78622;SDS011;67943;54.412;9.502;2023-09-08T05:23:54;11.38;;;8.10;;
78622;SDS011;67943;54.412;9.502;2023-09-08T05:28:57;11.60;;;8.82;;
78622;SDS011;67943;54.412;9.502;2023-09-08T05:33:59;10.68;;;8.35;;
78622;SDS011;67943;54.412;9.502;2023-09-08T05:39:00;13.80;;;8.70;;
78622;SDS011;67943;54.412;9.502;2023-09-08T05:44:04;15.88;;;9.32;;
78622;SDS011;67943;54.412;9.502;2023-09-08T05:49:05;11.95;;;8.35;;
78622;SDS011;67943;54.412;9.502;2023-09-08T05:54:07;11.02;;;8.40;;
78622;SDS011;67943;54.412;9.502;2023-09-08T05:59:10;15.32;;;9.18;;
78622;SDS011;67943;54.412;9.502;2023-09-08T06:04:11;12.07;;;8.25;;
78622;SDS011;67943;54.412;9.502;2023-09-08T06:09:13;10.88;;;8.40;;
78622;SDS011;67943;54.412;9.502;2023-09-08T06:14:17;11.90;;;9.00;;
78622;SDS011;67943;54.412;9.502;2023-09-08T06:19:19;15.07;;;9.68;;
78622;SDS011;67943;54.412;9.502;2023-09-08T06:24:20;13.18;;;9.05;;
78622;SDS011;67943;54.412;9.502;2023-09-08T06:29:23;10.82;;;7.32;;
78622;SDS011;67943;54.412;9.502;2023-09-08T06:34:25;9.48;;;7.40;;
78622;SDS011;67943;54.412;9.502;2023-09-08T06:39:26;9.98;;;7.90;;
78622;SDS011;67943;54.412;9.502;2023-09-08T06:44:29;9.30;;;7.43;;
78622;SDS011;67943;54.412;9.502;2023-09-08T06:49:31;10.75;;;7.18;;
78622;SDS011;67943;54.412;9.502;2023-09-08T06:54:32;10.52;;;7.40;;
78622;SDS011;67943;54.412;9.502;2023-09-08T06:59:35;10.93;;;7.43;;
78622;SDS011;67943;54.412;9.502;2023-09-08T07:04:37;9.80;;;6.60;;
78622;SDS011;67943;54.412;9.502;2023-09-08T07:09:39;8.93;;;7.20;;
78622;SDS011;67943;54.412;9.502;2023-09-08T07:14:41;9.50;;;6.72;;
78622;SDS011;67943;54.412;9.502;2023-09-08T07:19:43;8.63;;;6.57;;
78622;SDS011;67943;54.412;9.502;2023-09-08T07:24:44;7.75;;;6.07;;
78622;SDS011;67943;54.412;9.502;2023-09-08T07:29:47;9.60;;;7.07;;
78622;SDS011;67943;54.412;9.502;2023-09-08T07:34:49;8.98;;;6.65;;
78622;SDS011;67943;54.412;9.502;2023-09-08T07:39:55;8.55;;;6.47;;
78622;SDS011;67943;54.412;9.502;2023-09-08T07:44:57;8.55;;;6.80;;
78622;SDS011;67943;54.412;9.502;2023-09-08T08:00:24;7.80;;;6.00;;
78622;SDS011;67943;54.412;9.502;2023-09-08T08:05:26;6.57;;;5.85;;
78622;SDS011;67943;54.412;9.502;2023-09-08T08:10:28;10.80;;;6.00;;
78622;SDS011;67943;54.412;9.502;2023-09-08T08:15:38;7.25;;;6.15;;
78622;SDS011;67943;54.412;9.502;2023-09-08T08:20:41;9.07;;;6.50;;
78622;SDS011;67943;54.412;9.502;2023-09-08T08:25:42;7.93;;;6.05;;
78622;SDS011;67943;54.412;9.502;2023-09-08T08:30:45;10.50;;;5.60;;
78622;SDS011;67943;54.412;9.502;2023-09-08T08:35:50;8.50;;;5.78;;
78622;SDS011;67943;54.412;9.502;2023-09-08T08:40:52;7.57;;;5.53;;
78622;SDS011;67943;54.412;9.502;2023-09-08T08:45:55;8.27;;;5.40;;
78622;SDS011;67943;54.412;9.502;2023-09-08T08:50:58;6.80;;;5.72;;
78622;SDS011;67943;54.412;9.502;2023-09-08T08:56:01;7.72;;;5.18;;
78622;SDS011;67943;54.412;9.502;2023-09-08T09:01:04;7.95;;;5.45;;
78622;SDS011;67943;54.412;9.502;2023-09-08T09:06:09;7.28;;;4.88;;
78622;SDS011;67943;54.412;9.502;2023-09-08T09:11:11;6.05;;;4.68;;
78622;SDS011;67943;54.412;9.502;2023-09-08T09:16:14;6.45;;;5.05;;
78622;SDS011;67943;54.412;9.502;2023-09-08T09:21:15;5.63;;;4.35;;
78622;SDS011;67943;54.412;9.502;2023-09-08T09:26:22;7.18;;;4.78;;
78622;SDS011;67943;54.412;9.502;2023-09-08T09:31:26;5.18;;;4.05;;
78622;SDS011;67943;54.412;9.502;2023-09-08T09:36:28;7.95;;;4.25;;
78622;SDS011;67943;54.412;9.502;2023-09-08T09:41:29;5.88;;;4.40;;
78622;SDS011;67943;54.412;9.502;2023-09-08T09:46:32;5.72;;;4.38;;
78622;SDS011;67943;54.412;9.502;2023-09-08T09:51:34;7.45;;;4.50;;
78622;SDS011;67943;54.412;9.502;2023-09-08T09:56:41;6.07;;;4.20;;
78622;SDS011;67943;54.412;9.502;2023-09-08T10:01:44;4.38;;;3.63;;
78622;SDS011;67943;54.412;9.502;2023-09-08T10:06:47;5.78;;;4.13;;
78622;SDS011;67943;54.412;9.502;2023-09-08T10:11:49;6.80;;;4.18;;
78622;SDS011;67943;54.412;9.502;2023-09-08T10:16:53;5.82;;;4.07;;
78622;SDS011;67943;54.412;9.502;2023-09-08T10:21:59;5.13;;;4.05;;
78622;SDS011;67943;54.412;9.502;2023-09-08T10:27:04;4.90;;;3.70;;
78622;SDS011;67943;54.412;9.502;2023-09-08T10:32:11;6.22;;;4.00;;
78622;SDS011;67943;54.412;9.502;2023-09-08T10:37:19;4.95;;;3.83;;
78622;SDS011;67943;54.412;9.502;2023-09-08T10:42:22;4.53;;;3.53;;
78622;SDS011;67943;54.412;9.502;2023-09-08T10:47:30;4.60;;;3.60;;
78622;SDS011;67943;54.412;9.502;2023-09-08T10:52:34;4.65;;;3.58;;
78622;SDS011;67943;54.412;9.502;2023-09-08T10:57:36;5.60;;;3.30;;
78622;SDS011;67943;54.412;9.502;2023-09-08T11:02:39;5.78;;;3.83;;
78622;SDS011;67943;54.412;9.502;2023-09-08T11:07:42;4.10;;;2.78;;
78622;SDS011;67943;54.412;9.502;2023-09-08T11:12:45;5.70;;;3.45;;
78622;SDS011;67943;54.412;9.502;2023-09-08T11:17:50;3.60;;;3.10;;
78622;SDS011;67943;54.412;9.502;2023-09-08T11:22:52;4.30;;;3.22;;
78622;SDS011;67943;54.412;9.502;2023-09-08T11:27:53;4.95;;;3.03;;
78622;SDS011;67943;54.412;9.502;2023-09-08T11:32:57;3.70;;;3.10;;
78622;SDS011;67943;54.412;9.502;2023-09-08T11:37:59;4.53;;;3.08;;
78622;SDS011;67943;54.412;9.502;2023-09-08T11:43:05;3.43;;;3.00;;
78622;SDS011;67943;54.412;9.502;2023-09-08T11:48:08;5.20;;;3.20;;
78622;SDS011;67943;54.412;9.502;2023-09-08T11:53:10;5.57;;;3.50;;
78622;SDS011;67943;54.412;9.502;2023-09-08T11:58:12;4.82;;;3.50;;
78622;SDS011;67943;54.412;9.502;2023-09-08T12:03:16;5.80;;;3.83;;
78622;SDS011;67943;54.412;9.502;2023-09-08T12:08:18;3.97;;;3.55;;
78622;SDS011;67943;54.412;9.502;2023-09-08T12:13:20;4.45;;;3.15;;
78622;SDS011;67943;54.412;9.502;2023-09-08T12:23:47;6.05;;;3.20;;
78622;SDS011;67943;54.412;9.502;2023-09-08T12:28:50;4.07;;;3.67;;
78622;SDS011;67943;54.412;9.502;2023-09-08T12:33:53;4.65;;;3.05;;
78622;SDS011;67943;54.412;9.502;2023-09-08T12:38:54;4.10;;;3.70;;
78622;SDS011;67943;54.412;9.502;2023-09-08T12:43:56;4.05;;;3.30;;
78622;SDS011;67943;54.412;9.502;2023-09-08T12:48:59;4.35;;;3.17;;
78622;SDS011;67943;54.412;9.502;2023-09-08T12:54:00;4.00;;;3.28;;
78622;SDS011;67943;54.412;9.502;2023-09-08T12:59:02;6.10;;;3.80;;
78622;SDS011;67943;54.412;9.502;2023-09-08T13:04:05;5.35;;;3.30;;
78622;SDS011;67943;54.412;9.502;2023-09-08T13:09:07;3.97;;;3.10;;
78622;SDS011;67943;54.412;9.502;2023-09-08T13:14:09;4.72;;;3.70;;
78622;SDS011;67943;54.412;9.502;2023-09-08T13:19:12;4.25;;;3.58;;
78622;SDS011;67943;54.412;9.502;2023-09-08T13:24:13;5.60;;;3.17;;
78622;SDS011;67943;54.412;9.502;2023-09-08T13:29:15;7.13;;;3.90;;
78622;SDS011;67943;54.412;9.502;2023-09-08T13:34:20;4.53;;;3.72;;
78622;SDS011;67943;54.412;9.502;2023-09-08T13:39:22;5.90;;;3.60;;
78622;SDS011;67943;54.412;9.502;2023-09-08T13:44:23;5.47;;;3.58;;
78622;SDS011;67943;54.412;9.502;2023-09-08T13:49:27;8.77;;;3.90;;
78622;SDS011;67943;54.412;9.502;2023-09-08T13:54:28;5.72;;;3.78;;
78622;SDS011;67943;54.412;9.502;2023-09-08T13:59:30;4.00;;;3.58;;
78622;SDS011;67943;54.412;9.502;2023-09-08T14:04:33;7.82;;;3.90;;
78622;SDS011;67943;54.412;9.502;2023-09-08T14:09:35;6.35;;;4.20;;
78622;SDS011;67943;54.412;9.502;2023-09-08T14:14:37;4.53;;;3.85;;
78622;SDS011;67943;54.412;9.502;2023-09-08T14:19:40;8.00;;;4.05;;
78622;SDS011;67943;54.412;9.502;2023-09-08T14:24:41;5.70;;;3.95;;
78622;SDS011;67943;54.412;9.502;2023-09-08T14:29:43;5.32;;;3.83;;
78622;SDS011;67943;54.412;9.502;2023-09-08T14:34:45;6.28;;;3.80;;
78622;SDS011;67943;54.412;9.502;2023-09-08T14:39:47;7.50;;;3.92;;
78622;SDS011;67943;54.412;9.502;2023-09-08T14:44:49;5.32;;;3.60;;
78622;SDS011;67943;54.412;9.502;2023-09-08T14:49:53;7.43;;;3.95;;
78622;SDS011;67943;54.412;9.502;2023-09-08T14:54:54;4.25;;;3.75;;
78622;SDS011;67943;54.412;9.502;2023-09-08T14:59:56;5.95;;;3.55;;
78622;SDS011;67943;54.412;9.502;2023-09-08T15:04:59;5.93;;;4.13;;
78622;SDS011;67943;54.412;9.502;2023-09-08T15:10:00;8.50;;;4.50;;
78622;SDS011;67943;54.412;9.502;2023-09-08T15:15:04;6.93;;;4.65;;
78622;SDS011;67943;54.412;9.502;2023-09-08T15:20:08;7.60;;;4.03;;
78622;SDS011;67943;54.412;9.502;2023-09-08T15:25:10;6.60;;;4.10;;
78622;SDS011;67943;54.412;9.502;2023-09-08T15:30:12;8.73;;;4.00;;
78622;SDS011;67943;54.412;9.502;2023-09-08T15:35:16;6.00;;;4.35;;
78622;SDS011;67943;54.412;9.502;2023-09-08T15:40:18;5.65;;;4.07;;
78622;SDS011;67943;54.412;9.502;2023-09-08T15:45:19;7.18;;;4.35;;
78622;SDS011;67943;54.412;9.502;2023-09-08T15:50:22;5.72;;;3.92;;
78622;SDS011;67943;54.412;9.502;2023-09-08T15:55:24;5.65;;;3.55;;
78622;SDS011;67943;54.412;9.502;2023-09-08T16:00:25;4.32;;;3.30;;
78622;SDS011;67943;54.412;9.502;2023-09-08T16:05:28;5.28;;;3.80;;
78622;SDS011;67943;54.412;9.502;2023-09-08T16:10:29;4.60;;;4.05;;
78622;SDS011;67943;54.412;9.502;2023-09-08T16:15:31;7.28;;;5.03;;
78622;SDS011;67943;54.412;9.502;2023-09-08T16:20:34;6.43;;;4.22;;
78622;SDS011;67943;54.412;9.502;2023-09-08T16:25:36;6.05;;;3.70;;
78622;SDS011;67943;54.412;9.502;2023-09-08T16:30:37;6.97;;;6.30;;
78622;SDS011;67943;54.412;9.502;2023-09-08T16:35:40;20.85;;;18.00;;
78622;SDS011;67943;54.412;9.502;2023-09-08T16:40:43;6.50;;;5.90;;
78622;SDS011;67943;54.412;9.502;2023-09-08T16:45:45;6.85;;;5.65;;
78622;SDS011;67943;54.412;9.502;2023-09-08T16:50:49;5.60;;;4.55;;
78622;SDS011;67943;54.412;9.502;2023-09-08T16:55:50;6.00;;;5.40;;
78622;SDS011;67943;54.412;9.502;2023-09-08T17:00:52;6.03;;;4.60;;
78622;SDS011;67943;54.412;9.502;2023-09-08T17:05:55;5.78;;;4.30;;
78622;SDS011;67943;54.412;9.502;2023-09-08T17:10:56;5.68;;;4.30;;
78622;SDS011;67943;54.412;9.502;2023-09-08T17:16:04;6.03;;;4.97;;
78622;SDS011;67943;54.412;9.502;2023-09-08T17:21:07;7.28;;;4.75;;
78622;SDS011;67943;54.412;9.502;2023-09-08T17:26:08;5.70;;;4.70;;
78622;SDS011;67943;54.412;9.502;2023-09-08T17:31:10;7.38;;;4.90;;
78622;SDS011;67943;54.412;9.502;2023-09-08T17:36:13;6.63;;;4.90;;
78622;SDS011;67943;54.412;9.502;2023-09-08T17:41:14;6.53;;;5.15;;
78622;SDS011;67943;54.412;9.502;2023-09-08T17:46:16;5.90;;;4.97;;
78622;SDS011;67943;54.412;9.502;2023-09-08T17:51:19;6.53;;;5.80;;
78622;SDS011;67943;54.412;9.502;2023-09-08T17:56:21;6.22;;;5.60;;
78622;SDS011;67943;54.412;9.502;2023-09-08T18:01:23;6.55;;;5.85;;
78622;SDS011;67943;54.412;9.502;2023-09-08T18:06:25;8.32;;;6.45;;
78622;SDS011;67943;54.412;9.502;2023-09-08T18:11:27;9.77;;;7.00;;
78622;SDS011;67943;54.412;9.502;2023-09-08T18:16:29;9.98;;;7.07;;
78622;SDS011;67943;54.412;9.502;2023-09-08T18:21:32;9.82;;;8.20;;
78622;SDS011;67943;54.412;9.502;2023-09-08T18:26:33;9.65;;;7.07;;
78622;SDS011;67943;54.412;9.502;2023-09-08T18:31:35;8.88;;;6.60;;
78622;SDS011;67943;54.412;9.502;2023-09-08T18:36:38;7.93;;;6.68;;
78622;SDS011;67943;54.412;9.502;2023-09-08T18:41:39;9.70;;;7.13;;
78622;SDS011;67943;54.412;9.502;2023-09-08T18:46:41;12.57;;;9.82;;
78622;SDS011;67943;54.412;9.502;2023-09-08T18:51:43;16.25;;;11.27;;
78622;SDS011;67943;54.412;9.502;2023-09-08T18:56:45;14.07;;;10.25;;
78622;SDS011;67943;54.412;9.502;2023-09-08T19:01:46;14.48;;;10.50;;
78622;SDS011;67943;54.412;9.502;2023-09-08T19:06:49;11.75;;;9.20;;
78622;SDS011;67943;54.412;9.502;2023-09-08T19:11:51;10.10;;;8.38;;
78622;SDS011;67943;54.412;9.502;2023-09-08T19:16:52;9.10;;;7.40;;
78622;SDS011;67943;54.412;9.502;2023-09-08T19:21:55;8.52;;;6.93;;
78622;SDS011;67943;54.412;9.502;2023-09-08T19:26:56;6.85;;;6.15;;
78622;SDS011;67943;54.412;9.502;2023-09-08T19:31:58;9.32;;;6.80;;
78622;SDS011;67943;54.412;9.502;2023-09-08T19:37:01;8.98;;;6.30;;
78622;SDS011;67943;54.412;9.502;2023-09-08T19:42:03;7.90;;;6.53;;
78622;SDS011;67943;54.412;9.502;2023-09-08T19:47:04;7.78;;;6.80;;
78622;SDS011;67943;54.412;9.502;2023-09-08T19:52:08;9.85;;;7.22;;
78622;SDS011;67943;54.412;9.502;2023-09-08T19:57:10;8.77;;;6.97;;
78622;SDS011;67943;54.412;9.502;2023-09-08T20:02:11;7.88;;;6.70;;
78622;SDS011;67943;54.412;9.502;2023-09-08T20:07:14;8.77;;;7.25;;
78622;SDS011;67943;54.412;9.502;2023-09-08T20:12:15;9.57;;;7.00;;
78622;SDS011;67943;54.412;9.502;2023-09-08T20:17:17;8.93;;;7.30;;
78622;SDS011;67943;54.412;9.502;2023-09-08T20:22:20;12.40;;;7.85;;
78622;SDS011;67943;54.412;9.502;2023-09-08T20:27:21;10.05;;;7.22;;
78622;SDS011;67943;54.412;9.502;2023-09-08T20:32:23;8.82;;;7.22;;
78622;SDS011;67943;54.412;9.502;2023-09-08T20:37:26;9.68;;;7.82;;
78622;SDS011;67943;54.412;9.502;2023-09-08T20:42:27;8.45;;;7.53;;
78622;SDS011;67943;54.412;9.502;2023-09-08T20:47:29;9.95;;;7.65;;
78622;SDS011;67943;54.412;9.502;2023-09-08T20:52:32;10.93;;;8.13;;
78622;SDS011;67943;54.412;9.502;2023-09-08T20:57:33;10.50;;;8.73;;
78622;SDS011;67943;54.412;9.502;2023-09-08T21:02:35;9.65;;;7.68;;
78622;SDS011;67943;54.412;9.502;2023-09-08T21:07:38;10.05;;;8.10;;
78622;SDS011;67943;54.412;9.502;2023-09-08T21:12:39;11.55;;;7.90;;
78622;SDS011;67943;54.412;9.502;2023-09-08T21:17:41;9.55;;;7.80;;
78622;SDS011;67943;54.412;9.502;2023-09-08T21:22:44;10.98;;;8.43;;
78622;SDS011;67943;54.412;9.502;2023-09-08T21:27:45;11.48;;;8.35;;
78622;SDS011;67943;54.412;9.502;2023-09-08T21:32:47;9.07;;;7.97;;
78622;SDS011;67943;54.412;9.502;2023-09-08T21:37:50;10.63;;;7.13;;
78622;SDS011;67943;54.412;9.502;2023-09-08T21:42:52;9.13;;;7.30;;
78622;SDS011;67943;54.412;9.502;2023-09-08T21:47:53;8.38;;;7.13;;
78622;SDS011;67943;54.412;9.502;2023-09-08T21:52:57;8.75;;;6.50;;
78622;SDS011;67943;54.412;9.502;2023-09-08T21:57:59;7.22;;;5.93;;
78622;SDS011;67943;54.412;9.502;2023-09-08T22:03:00;9.05;;;6.88;;
78622;SDS011;67943;54.412;9.502;2023-09-08T22:08:04;10.32;;;6.38;;
78622;SDS011;67943;54.412;9.502;2023-09-08T22:13:07;7.32;;;5.80;;
78622;SDS011;67943;54.412;9.502;2023-09-08T22:18:08;7.35;;;5.85;;
78622;SDS011;67943;54.412;9.502;2023-09-08T22:23:11;8.40;;;5.70;;
78622;SDS011;67943;54.412;9.502;2023-09-08T22:28:13;6.72;;;5.90;;
78622;SDS011;67943;54.412;9.502;2023-09-08T22:33:14;8.73;;;6.30;;
78622;SDS011;67943;54.412;9.502;2023-09-08T22:38:17;5.82;;;5.15;;
78622;SDS011;67943;54.412;9.502;2023-09-08T22:43:18;7.88;;;5.63;;
78622;SDS011;67943;54.412;9.502;2023-09-08T22:48:20;8.23;;;5.97;;
78622;SDS011;67943;54.412;9.502;2023-09-08T22:53:25;7.65;;;5.88;;
78622;SDS011;67943;54.412;9.502;2023-09-08T22:58:35;8.07;;;6.30;;
78622;SDS011;67943;54.412;9.502;2023-09-08T23:03:38;8.10;;;6.28;;
78622;SDS011;67943;54.412;9.502;2023-09-08T23:08:41;8.85;;;6.05;;
78622;SDS011;67943;54.412;9.502;2023-09-08T23:13:42;9.18;;;6.03;;
78622;SDS011;67943;54.412;9.502;2023-09-08T23:18:43;9.57;;;6.13;;
78622;SDS011;67943;54.412;9.502;2023-09-08T23:23:46;8.90;;;5.95;;
78622;SDS011;67943;54.412;9.502;2023-09-08T23:28:49;9.32;;;6.00;;
78622;SDS011;67943;54.412;9.502;2023-09-08T23:33:54;10.00;;;6.28;;
78622;SDS011;67943;54.412;9.502;2023-09-08T23:38:57;11.90;;;6.68;;
78622;SDS011;67943;54.412;9.502;2023-09-08T23:43:59;6.63;;;5.70;;
78622;SDS011;67943;54.412;9.502;2023-09-08T23:49:00;9.48;;;6.15;;
78622;SDS011;67943;54.412;9.502;2023-09-08T23:54:03;8.55;;;6.13;;
78622;SDS011;67943;54.412;9.502;2023-09-08T23:59:05;8.98;;;6.28;;
